In Rescue
 
Open Full Screen Window  High Contrast Mode
Wind Gusting 00 knots
07
February 25, 2021 4:23 PM EST
Weather Information
Wind Direction
  300 °
Wind Speed
  07 kt (8 mph)
Wind Gust
  00 kt (0 mph)
Altimeter
30.17 in
Visibility
10 SM
Temperature
-02° C
28° F
Dewpoint
-05° C
23° F
Humidity
80%
Sky Condition
Broken @ 4,200 ft
Scattered @ 3,000 ft
VFR

METAR KSLH 252123Z AUTO 30007KT 10SM SCT030 BKN042 M02/M05 A3017 RMK AO2

FAA Disclaimer: The data displayed is for advisory purposes only and is not to be used for flight planning or operations.